sensor_id;sensor_type;location;lat;lon;timestamp;pressure;altitude;pressure_sealevel;temperature;humidity
77077;BME280;66003;52.286;104.306;2023-02-22T00:01:31;97587.97;;;-5.49;46.82
77077;BME280;66003;52.286;104.306;2023-02-22T00:04:08;97630.34;;;-5.11;46.08
77077;BME280;66003;52.286;104.306;2023-02-22T00:06:35;97621.09;;;-5.23;46.95
77077;BME280;66003;52.286;104.306;2023-02-22T00:09:02;97651.25;;;-4.85;46.43
77077;BME280;66003;52.286;104.306;2023-02-22T00:11:28;97644.38;;;-4.68;45.76
77077;BME280;66003;52.286;104.306;2023-02-22T00:13:56;97641.03;;;-4.61;44.86
77077;BME280;66003;52.286;104.306;2023-02-22T00:16:23;97590.28;;;-5.10;45.49
77077;BME280;66003;52.286;104.306;2023-02-22T00:18:50;97646.34;;;-4.88;45.54
77077;BME280;66003;52.286;104.306;2023-02-22T00:21:16;97643.50;;;-4.95;46.38
77077;BME280;66003;52.286;104.306;2023-02-22T00:23:45;97630.09;;;-5.18;47.15
77077;BME280;66003;52.286;104.306;2023-02-22T00:26:18;97635.28;;;-4.82;46.65
77077;BME280;66003;52.286;104.306;2023-02-22T00:28:52;97605.91;;;-4.92;46.07
77077;BME280;66003;52.286;104.306;2023-02-22T00:31:18;97650.75;;;-4.45;45.24
77077;BME280;66003;52.286;104.306;2023-02-22T00:33:45;97661.41;;;-4.39;45.52
77077;BME280;66003;52.286;104.306;2023-02-22T00:36:12;97658.78;;;-4.39;45.57
77077;BME280;66003;52.286;104.306;2023-02-22T00:38:39;97651.31;;;-4.33;46.45
77077;BME280;66003;52.286;104.306;2023-02-22T00:41:06;97659.91;;;-4.15;46.90
77077;BME280;66003;52.286;104.306;2023-02-22T00:43:32;97655.03;;;-4.10;46.88
77077;BME280;66003;52.286;104.306;2023-02-22T00:45:59;97636.66;;;-4.01;46.56
77077;BME280;66003;52.286;104.306;2023-02-22T00:48:25;97599.66;;;-3.96;45.31
77077;BME280;66003;52.286;104.306;2023-02-22T00:50:51;97666.28;;;-3.42;45.36
77077;BME280;66003;52.286;104.306;2023-02-22T00:53:23;97587.66;;;-3.73;45.08
77077;BME280;66003;52.286;104.306;2023-02-22T00:55:50;97638.41;;;-3.33;45.17
77077;BME280;66003;52.286;104.306;2023-02-22T00:58:17;97675.16;;;-3.18;44.38
77077;BME280;66003;52.286;104.306;2023-02-22T01:00:44;97615.78;;;-3.50;44.83
77077;BME280;66003;52.286;104.306;2023-02-22T01:03:16;97675.16;;;-3.18;44.70
77077;BME280;66003;52.286;104.306;2023-02-22T01:05:42;97614.53;;;-3.30;44.23
77077;BME280;66003;52.286;104.306;2023-02-22T01:08:10;97594.06;;;-4.01;44.64
77077;BME280;66003;52.286;104.306;2023-02-22T01:10:37;97614.69;;;-3.90;45.57
77077;BME280;66003;52.286;104.306;2023-02-22T01:13:04;97631.22;;;-3.73;45.67
77077;BME280;66003;52.286;104.306;2023-02-22T01:15:34;97679.72;;;-3.29;45.08
77077;BME280;66003;52.286;104.306;2023-02-22T01:18:01;97635.84;;;-3.67;45.73
77077;BME280;66003;52.286;104.306;2023-02-22T01:20:28;97638.41;;;-3.25;44.40
77077;BME280;66003;52.286;104.306;2023-02-22T01:22:56;97640.25;;;-2.93;44.02
77077;BME280;66003;52.286;104.306;2023-02-22T01:25:26;97699.31;;;-2.50;44.11
77077;BME280;66003;52.286;104.306;2023-02-22T01:27:53;97653.34;;;-2.85;44.16
77077;BME280;66003;52.286;104.306;2023-02-22T01:30:22;97695.06;;;-2.51;43.80
77077;BME280;66003;52.286;104.306;2023-02-22T01:32:49;97675.56;;;-2.32;43.40
77077;BME280;66003;52.286;104.306;2023-02-22T01:35:18;97680.16;;;-2.26;43.29
77077;BME280;66003;52.286;104.306;2023-02-22T01:37:44;97678.34;;;-2.58;43.52
77077;BME280;66003;52.286;104.306;2023-02-22T01:40:17;97704.03;;;-2.45;43.65
77077;BME280;66003;52.286;104.306;2023-02-22T01:42:47;97690.47;;;-2.49;44.27
77077;BME280;66003;52.286;104.306;2023-02-22T01:48:03;97713.00;;;-1.99;43.09
77077;BME280;66003;52.286;104.306;2023-02-22T01:50:32;97719.19;;;-1.76;42.70
77077;BME280;66003;52.286;104.306;2023-02-22T01:53:00;97685.00;;;-1.99;42.77
77077;BME280;66003;52.286;104.306;2023-02-22T01:55:27;97708.47;;;-2.30;43.37
77077;BME280;66003;52.286;104.306;2023-02-22T01:57:53;97735.28;;;-2.28;43.23
77077;BME280;66003;52.286;104.306;2023-02-22T02:00:20;97728.59;;;-2.14;43.44
77077;BME280;66003;52.286;104.306;2023-02-22T02:02:59;97730.53;;;-2.08;43.33
77077;BME280;66003;52.286;104.306;2023-02-22T02:05:28;97697.03;;;-2.37;43.65
77077;BME280;66003;52.286;104.306;2023-02-22T02:08:00;97614.09;;;-2.77;43.59
77077;BME280;66003;52.286;104.306;2023-02-22T02:10:31;97677.84;;;-2.21;43.49
77077;BME280;66003;52.286;104.306;2023-02-22T02:13:00;97681.44;;;-2.22;43.05
77077;BME280;66003;52.286;104.306;2023-02-22T02:15:31;97729.75;;;-1.53;42.90
77077;BME280;66003;52.286;104.306;2023-02-22T02:18:04;97686.88;;;-1.60;42.23
77077;BME280;66003;52.286;104.306;2023-02-22T02:27:10;97717.91;;;1.00;38.75
77077;BME280;66003;52.286;104.306;2023-02-22T02:30:08;97674.72;;;1.52;37.59
77077;BME280;66003;52.286;104.306;2023-02-22T02:33:10;97697.09;;;2.12;36.70
77077;BME280;66003;52.286;104.306;2023-02-22T02:35:38;97694.81;;;2.37;36.16
77077;BME280;66003;52.286;104.306;2023-02-22T02:38:30;97688.63;;;2.51;35.40
77077;BME280;66003;52.286;104.306;2023-02-22T02:44:50;97658.66;;;3.33;34.74
77077;BME280;66003;52.286;104.306;2023-02-22T02:46:49;97619.69;;;3.61;33.54
77077;BME280;66003;52.286;104.306;2023-02-22T02:49:26;97636.34;;;3.88;32.61
77077;BME280;66003;52.286;104.306;2023-02-22T02:51:54;97688.00;;;4.23;32.64
77077;BME280;66003;52.286;104.306;2023-02-22T02:54:22;97684.97;;;4.07;32.66
77077;BME280;66003;52.286;104.306;2023-02-22T02:56:49;97691.25;;;3.92;33.09
77077;BME280;66003;52.286;104.306;2023-02-22T02:59:31;97653.22;;;3.54;33.49
77077;BME280;66003;52.286;104.306;2023-02-22T03:07:52;97694.00;;;3.32;34.09
77077;BME280;66003;52.286;104.306;2023-02-22T03:27:17;97684.50;;;5.52;32.15
77077;BME280;66003;52.286;104.306;2023-02-22T03:29:47;97571.97;;;4.78;32.11
77077;BME280;66003;52.286;104.306;2023-02-22T03:32:20;97692.31;;;5.33;32.40
77077;BME280;66003;52.286;104.306;2023-02-22T03:34:55;97662.97;;;4.90;33.32
77077;BME280;66003;52.286;104.306;2023-02-22T03:37:27;97673.88;;;4.62;33.31
77077;BME280;66003;52.286;104.306;2023-02-22T03:39:55;97663.88;;;4.64;33.61
77077;BME280;66003;52.286;104.306;2023-02-22T03:42:31;97641.75;;;4.39;34.11
77077;BME280;66003;52.286;104.306;2023-02-22T03:45:01;97673.06;;;4.62;34.18
77077;BME280;66003;52.286;104.306;2023-02-22T03:47:37;97654.34;;;4.50;34.45
77077;BME280;66003;52.286;104.306;2023-02-22T03:50:15;97656.16;;;4.63;34.66
77077;BME280;66003;52.286;104.306;2023-02-22T03:52:43;97580.41;;;3.97;34.98
77077;BME280;66003;52.286;104.306;2023-02-22T03:55:13;97694.03;;;4.63;35.26
77077;BME280;66003;52.286;104.306;2023-02-22T03:57:49;97685.06;;;4.64;35.60
77077;BME280;66003;52.286;104.306;2023-02-22T04:00:21;97688.28;;;4.73;35.43
77077;BME280;66003;52.286;104.306;2023-02-22T04:02:47;97643.56;;;4.58;35.55
77077;BME280;66003;52.286;104.306;2023-02-22T04:05:14;97649.78;;;4.84;34.86
77077;BME280;66003;52.286;104.306;2023-02-22T04:07:41;97687.09;;;5.20;34.96
77077;BME280;66003;52.286;104.306;2023-02-22T04:10:09;97693.81;;;5.23;34.79
77077;BME280;66003;52.286;104.306;2023-02-22T04:12:36;97644.91;;;4.81;35.30
77077;BME280;66003;52.286;104.306;2023-02-22T04:15:03;97659.81;;;4.68;35.29
77077;BME280;66003;52.286;104.306;2023-02-22T04:17:31;97695.22;;;4.74;35.89
77077;BME280;66003;52.286;104.306;2023-02-22T04:19:57;97696.88;;;4.68;35.71
77077;BME280;66003;52.286;104.306;2023-02-22T04:22:23;97672.47;;;4.53;36.03
77077;BME280;66003;52.286;104.306;2023-02-22T04:24:50;97686.38;;;4.16;37.06
77077;BME280;66003;52.286;104.306;2023-02-22T04:27:16;97657.50;;;3.88;36.91
77077;BME280;66003;52.286;104.306;2023-02-22T04:29:42;97675.41;;;3.99;37.35
77077;BME280;66003;52.286;104.306;2023-02-22T04:32:08;97656.88;;;3.66;37.60
77077;BME280;66003;52.286;104.306;2023-02-22T04:34:34;97604.41;;;3.23;37.96
77077;BME280;66003;52.286;104.306;2023-02-22T04:37:00;97694.69;;;3.60;38.15
77077;BME280;66003;52.286;104.306;2023-02-22T04:39:26;97685.97;;;3.53;38.16
77077;BME280;66003;52.286;104.306;2023-02-22T04:41:52;97698.16;;;3.60;38.18
77077;BME280;66003;52.286;104.306;2023-02-22T04:44:19;97642.19;;;3.17;38.26
77077;BME280;66003;52.286;104.306;2023-02-22T04:46:45;97660.69;;;3.24;38.50
77077;BME280;66003;52.286;104.306;2023-02-22T04:49:11;97676.53;;;3.24;38.88
77077;BME280;66003;52.286;104.306;2023-02-22T04:51:37;97678.94;;;3.19;39.00
77077;BME280;66003;52.286;104.306;2023-02-22T04:54:04;97671.34;;;2.89;39.40
77077;BME280;66003;52.286;104.306;2023-02-22T04:56:30;97688.38;;;2.87;39.67
77077;BME280;66003;52.286;104.306;2023-02-22T04:58:56;97686.47;;;2.68;40.01
77077;BME280;66003;52.286;104.306;2023-02-22T05:01:22;97684.78;;;2.60;40.49
77077;BME280;66003;52.286;104.306;2023-02-22T05:03:48;97649.69;;;2.25;40.74
77077;BME280;66003;52.286;104.306;2023-02-22T05:06:16;97658.28;;;2.34;40.83
77077;BME280;66003;52.286;104.306;2023-02-22T05:08:43;97553.88;;;1.70;41.01
77077;BME280;66003;52.286;104.306;2023-02-22T05:11:09;97684.97;;;2.52;40.78
77077;BME280;66003;52.286;104.306;2023-02-22T05:13:35;97679.06;;;2.50;40.73
77077;BME280;66003;52.286;104.306;2023-02-22T05:16:01;97681.78;;;2.63;40.66
77077;BME280;66003;52.286;104.306;2023-02-22T05:18:28;97663.44;;;2.48;41.05
77077;BME280;66003;52.286;104.306;2023-02-22T05:20:54;97670.84;;;2.73;40.38
77077;BME280;66003;52.286;104.306;2023-02-22T05:23:20;97633.00;;;2.46;40.72
77077;BME280;66003;52.286;104.306;2023-02-22T05:25:47;97634.66;;;2.53;40.88
77077;BME280;66003;52.286;104.306;2023-02-22T05:28:14;97672.16;;;2.97;40.38
77077;BME280;66003;52.286;104.306;2023-02-22T05:30:40;97670.78;;;3.01;40.67
77077;BME280;66003;52.286;104.306;2023-02-22T05:33:07;97667.38;;;3.13;40.20
77077;BME280;66003;52.286;104.306;2023-02-22T05:35:34;97639.31;;;3.06;40.59
77077;BME280;66003;52.286;104.306;2023-02-22T05:38:02;97617.94;;;2.87;40.22
77077;BME280;66003;52.286;104.306;2023-02-22T05:40:29;97655.16;;;3.12;40.08
77077;BME280;66003;52.286;104.306;2023-02-22T05:42:57;97631.41;;;3.06;40.06
77077;BME280;66003;52.286;104.306;2023-02-22T05:45:25;97652.97;;;3.22;40.29
77077;BME280;66003;52.286;104.306;2023-02-22T05:47:52;97604.97;;;2.99;39.87
77077;BME280;66003;52.286;104.306;2023-02-22T05:50:19;97605.34;;;2.89;39.85
77077;BME280;66003;52.286;104.306;2023-02-22T05:52:47;97658.03;;;3.17;40.21
77077;BME280;66003;52.286;104.306;2023-02-22T05:55:16;97605.34;;;2.89;40.11
77077;BME280;66003;52.286;104.306;2023-02-22T05:57:42;97642.34;;;3.03;40.50
77077;BME280;66003;52.286;104.306;2023-02-22T06:00:09;97617.72;;;2.89;40.51
77077;BME280;66003;52.286;104.306;2023-02-22T06:02:36;97609.22;;;3.00;40.29
77077;BME280;66003;52.286;104.306;2023-02-22T06:05:02;97568.81;;;2.93;40.35
77077;BME280;66003;52.286;104.306;2023-02-22T06:07:28;97642.22;;;3.37;40.09
77077;BME280;66003;52.286;104.306;2023-02-22T06:09:54;97631.44;;;3.32;40.25
77077;BME280;66003;52.286;104.306;2023-02-22T06:12:20;97594.19;;;2.94;39.76
77077;BME280;66003;52.286;104.306;2023-02-22T06:14:46;97602.91;;;2.88;39.69
77077;BME280;66003;52.286;104.306;2023-02-22T06:17:14;97627.31;;;3.03;40.01
77077;BME280;66003;52.286;104.306;2023-02-22T06:19:40;97642.38;;;3.16;39.75
77077;BME280;66003;52.286;104.306;2023-02-22T06:22:18;97616.16;;;3.08;39.71
77077;BME280;66003;52.286;104.306;2023-02-22T06:24:44;97631.59;;;3.11;39.88
77077;BME280;66003;52.286;104.306;2023-02-22T06:27:10;97627.28;;;2.97;39.90
77077;BME280;66003;52.286;104.306;2023-02-22T06:29:36;97569.56;;;2.67;39.88
77077;BME280;66003;52.286;104.306;2023-02-22T06:32:03;97642.34;;;3.03;39.84
77077;BME280;66003;52.286;104.306;2023-02-22T06:34:29;97592.03;;;2.57;39.83
77077;BME280;66003;52.286;104.306;2023-02-22T06:36:55;97628.66;;;2.79;39.87
77077;BME280;66003;52.286;104.306;2023-02-22T06:39:21;97637.03;;;2.96;39.49
77077;BME280;66003;52.286;104.306;2023-02-22T06:41:48;97604.72;;;2.87;39.66
77077;BME280;66003;52.286;104.306;2023-02-22T06:44:15;97582.78;;;2.80;39.52
77077;BME280;66003;52.286;104.306;2023-02-22T06:46:49;97623.06;;;3.02;39.31
77077;BME280;66003;52.286;104.306;2023-02-22T06:49:19;97629.72;;;2.98;39.67
77077;BME280;66003;52.286;104.306;2023-02-22T06:51:45;97571.56;;;2.72;39.39
77077;BME280;66003;52.286;104.306;2023-02-22T06:54:12;97599.03;;;2.84;39.84
77077;BME280;66003;52.286;104.306;2023-02-22T06:56:38;97497.22;;;2.35;39.16
77077;BME280;66003;52.286;104.306;2023-02-22T06:59:04;97622.69;;;3.18;38.93
77077;BME280;66003;52.286;104.306;2023-02-22T07:01:31;97610.47;;;3.11;38.97
77077;BME280;66003;52.286;104.306;2023-02-22T07:03:57;97611.91;;;3.20;38.85
77077;BME280;66003;52.286;104.306;2023-02-22T07:06:23;97611.69;;;3.21;39.05
77077;BME280;66003;52.286;104.306;2023-02-22T07:08:49;97606.19;;;3.03;39.06
77077;BME280;66003;52.286;104.306;2023-02-22T07:11:16;97595.84;;;3.02;39.13
77077;BME280;66003;52.286;104.306;2023-02-22T07:13:42;97563.31;;;2.88;38.61
77077;BME280;66003;52.286;104.306;2023-02-22T07:16:08;97533.84;;;2.78;38.49
77077;BME280;66003;52.286;104.306;2023-02-22T07:18:34;97579.78;;;3.10;38.71
77077;BME280;66003;52.286;104.306;2023-02-22T07:21:01;97576.72;;;2.93;38.66
77077;BME280;66003;52.286;104.306;2023-02-22T07:23:27;97610.50;;;3.17;38.82
77077;BME280;66003;52.286;104.306;2023-02-22T07:25:53;97567.78;;;2.87;38.46
77077;BME280;66003;52.286;104.306;2023-02-22T07:28:19;97612.09;;;3.12;38.72
77077;BME280;66003;52.286;104.306;2023-02-22T07:30:45;97531.38;;;2.57;38.71
77077;BME280;66003;52.286;104.306;2023-02-22T07:33:12;97577.72;;;2.79;38.68
77077;BME280;66003;52.286;104.306;2023-02-22T07:35:46;97527.88;;;2.49;38.67
77077;BME280;66003;52.286;104.306;2023-02-22T07:38:12;97608.66;;;3.11;38.81
77077;BME280;66003;52.286;104.306;2023-02-22T07:40:40;97578.31;;;2.81;39.29
77077;BME280;66003;52.286;104.306;2023-02-22T07:43:24;97612.06;;;2.92;39.22
77077;BME280;66003;52.286;104.306;2023-02-22T07:45:53;97598.00;;;2.78;39.67
77077;BME280;66003;52.286;104.306;2023-02-22T07:48:20;97615.03;;;2.76;38.82
77077;BME280;66003;52.286;104.306;2023-02-22T07:50:47;97613.03;;;2.84;39.00
77077;BME280;66003;52.286;104.306;2023-02-22T07:53:17;97486.06;;;1.92;38.73
77077;BME280;66003;52.286;104.306;2023-02-22T07:55:43;97618.28;;;2.71;38.57
77077;BME280;66003;52.286;104.306;2023-02-22T07:58:13;97612.78;;;2.73;38.67
77077;BME280;66003;52.286;104.306;2023-02-22T08:00:42;97561.56;;;2.47;38.91
77077;BME280;66003;52.286;104.306;2023-02-22T08:03:11;97571.63;;;2.24;38.65
77077;BME280;66003;52.286;104.306;2023-02-22T08:05:39;97617.63;;;2.56;38.61
77077;BME280;66003;52.286;104.306;2023-02-22T08:08:06;97605.59;;;2.47;39.22
77077;BME280;66003;52.286;104.306;2023-02-22T08:10:33;97609.69;;;2.56;39.87
77077;BME280;66003;52.286;104.306;2023-02-22T08:13:01;97598.53;;;2.54;38.94
77077;BME280;66003;52.286;104.306;2023-02-22T08:15:28;97619.94;;;2.79;38.90
77077;BME280;66003;52.286;104.306;2023-02-22T08:17:56;97606.06;;;2.64;38.93
77077;BME280;66003;52.286;104.306;2023-02-22T08:20:24;97617.25;;;2.72;37.93
77077;BME280;66003;52.286;104.306;2023-02-22T08:22:50;97611.34;;;2.64;37.66
77077;BME280;66003;52.286;104.306;2023-02-22T08:25:17;97620.44;;;2.54;37.78
77077;BME280;66003;52.286;104.306;2023-02-22T08:27:45;97576.91;;;2.31;38.26
77077;BME280;66003;52.286;104.306;2023-02-22T08:30:31;97534.59;;;2.04;38.65
77077;BME280;66003;52.286;104.306;2023-02-22T08:32:58;97615.56;;;2.51;38.18
77077;BME280;66003;52.286;104.306;2023-02-22T08:35:24;97602.09;;;2.33;38.19
77077;BME280;66003;52.286;104.306;2023-02-22T08:37:56;97593.50;;;2.25;38.18
77077;BME280;66003;52.286;104.306;2023-02-22T08:40:25;97610.41;;;2.37;38.21
77077;BME280;66003;52.286;104.306;2023-02-22T08:42:52;97581.13;;;2.18;38.11
77077;BME280;66003;52.286;104.306;2023-02-22T08:45:19;97629.13;;;2.42;39.30
77077;BME280;66003;52.286;104.306;2023-02-22T08:47:46;97574.38;;;2.09;38.46
77077;BME280;66003;52.286;104.306;2023-02-22T08:50:20;97564.75;;;1.95;38.64
77077;BME280;66003;52.286;104.306;2023-02-22T08:52:46;97628.66;;;2.32;38.76
77077;BME280;66003;52.286;104.306;2023-02-22T08:55:12;97582.44;;;2.01;38.63
77077;BME280;66003;52.286;104.306;2023-02-22T08:57:39;97632.84;;;2.20;38.63
77077;BME280;66003;52.286;104.306;2023-02-22T09:00:06;97644.97;;;2.14;39.39
77077;BME280;66003;52.286;104.306;2023-02-22T09:02:32;97612.19;;;1.89;39.27
77077;BME280;66003;52.286;104.306;2023-02-22T09:04:58;97632.91;;;1.98;39.47
77077;BME280;66003;52.286;104.306;2023-02-22T09:07:24;97631.84;;;1.93;39.55
77077;BME280;66003;52.286;104.306;2023-02-22T09:09:50;97650.69;;;1.90;39.74
77077;BME280;66003;52.286;104.306;2023-02-22T09:12:16;97649.88;;;1.89;39.79
77077;BME280;66003;52.286;104.306;2023-02-22T09:14:42;97642.28;;;1.79;39.82
77077;BME280;66003;52.286;104.306;2023-02-22T09:17:09;97611.78;;;1.42;40.24
77077;BME280;66003;52.286;104.306;2023-02-22T09:19:35;97658.00;;;1.66;40.01
77077;BME280;66003;52.286;104.306;2023-02-22T09:22:01;97609.88;;;1.30;40.21
77077;BME280;66003;52.286;104.306;2023-02-22T09:24:27;97660.97;;;1.57;40.23
77077;BME280;66003;52.286;104.306;2023-02-22T09:26:53;97611.19;;;1.19;40.66
77077;BME280;66003;52.286;104.306;2023-02-22T09:29:24;97607.88;;;1.11;40.68
77077;BME280;66003;52.286;104.306;2023-02-22T09:31:52;97671.00;;;1.47;40.62
77077;BME280;66003;52.286;104.306;2023-02-22T09:34:20;97668.91;;;1.42;41.07
77077;BME280;66003;52.286;104.306;2023-02-22T09:36:48;97654.03;;;1.28;41.27
77077;BME280;66003;52.286;104.306;2023-02-22T09:39:16;97619.06;;;0.98;40.96
77077;BME280;66003;52.286;104.306;2023-02-22T09:45:16;97673.94;;;1.16;41.05
77077;BME280;66003;52.286;104.306;2023-02-22T09:47:22;97620.22;;;0.74;41.07
77077;BME280;66003;52.286;104.306;2023-02-22T09:50:06;97670.66;;;0.92;41.67
77077;BME280;66003;52.286;104.306;2023-02-22T09:53:02;97614.13;;;0.52;41.54
77077;BME280;66003;52.286;104.306;2023-02-22T09:55:39;97659.25;;;0.70;41.67
77077;BME280;66003;52.286;104.306;2023-02-22T09:58:32;97680.66;;;0.67;42.05
77077;BME280;66003;52.286;104.306;2023-02-22T10:01:37;97675.13;;;0.62;41.79
77077;BME280;66003;52.286;104.306;2023-02-22T10:04:22;97655.13;;;0.47;42.30
77077;BME280;66003;52.286;104.306;2023-02-22T10:09:44;97659.28;;;0.26;42.57
77077;BME280;66003;52.286;104.306;2023-02-22T10:26:28;97687.81;;;0.00;43.36
77077;BME280;66003;52.286;104.306;2023-02-22T10:31:40;97637.16;;;-0.46;43.42
77077;BME280;66003;52.286;104.306;2023-02-22T10:34:14;97620.84;;;-0.56;42.70
77077;BME280;66003;52.286;104.306;2023-02-22T10:36:45;97668.16;;;-0.42;43.90
77077;BME280;66003;52.286;104.306;2023-02-22T10:39:27;97695.81;;;-0.31;43.39
77077;BME280;66003;52.286;104.306;2023-02-22T10:41:57;97692.31;;;-0.46;44.30
77077;BME280;66003;52.286;104.306;2023-02-22T10:44:38;97640.22;;;-0.80;44.20
77077;BME280;66003;52.286;104.306;2023-02-22T10:47:20;97694.09;;;-0.47;44.32
77077;BME280;66003;52.286;104.306;2023-02-22T10:49:50;97642.75;;;-0.87;44.49
77077;BME280;66003;52.286;104.306;2023-02-22T10:52:23;97712.28;;;-0.60;44.66
77077;BME280;66003;52.286;104.306;2023-02-22T10:54:51;97661.63;;;-0.91;44.39
77077;BME280;66003;52.286;104.306;2023-02-22T10:57:21;97702.19;;;-0.71;44.65
77077;BME280;66003;52.286;104.306;2023-02-22T10:59:50;97626.75;;;-1.23;44.93
77077;BME280;66003;52.286;104.306;2023-02-22T11:02:36;97707.94;;;-0.76;44.72
77077;BME280;66003;52.286;104.306;2023-02-22T11:05:03;97714.25;;;-0.85;45.47
77077;BME280;66003;52.286;104.306;2023-02-22T11:07:32;97705.06;;;-0.89;45.42
77077;BME280;66003;52.286;104.306;2023-02-22T11:10:02;97590.25;;;-1.63;45.08
77077;BME280;66003;52.286;104.306;2023-02-22T11:12:36;97714.09;;;-0.91;45.50
77077;BME280;66003;52.286;104.306;2023-02-22T11:15:28;97716.72;;;-0.91;45.47
77077;BME280;66003;52.286;104.306;2023-02-22T11:17:56;97711.53;;;-0.99;46.37
77077;BME280;66003;52.286;104.306;2023-02-22T11:20:24;97716.78;;;-0.99;46.24
77077;BME280;66003;52.286;104.306;2023-02-22T11:22:53;97711.38;;;-1.06;46.41
77077;BME280;66003;52.286;104.306;2023-02-22T11:25:24;97712.91;;;-1.12;46.52
77077;BME280;66003;52.286;104.306;2023-02-22T11:27:52;97720.28;;;-1.07;46.42
77077;BME280;66003;52.286;104.306;2023-02-22T11:30:31;97697.88;;;-1.26;46.79
77077;BME280;66003;52.286;104.306;2023-02-22T11:35:55;97692.16;;;-1.29;46.68
77077;BME280;66003;52.286;104.306;2023-02-22T11:38:28;97740.44;;;-1.07;46.62
77077;BME280;66003;52.286;104.306;2023-02-22T11:41:19;97740.06;;;-1.04;45.98
77077;BME280;66003;52.286;104.306;2023-02-22T11:43:51;97721.00;;;-1.29;46.50
77077;BME280;66003;52.286;104.306;2023-02-22T11:46:26;97723.31;;;-1.34;47.26
77077;BME280;66003;52.286;104.306;2023-02-22T11:56:30;97752.91;;;-1.18;46.30
77077;BME280;66003;52.286;104.306;2023-02-22T11:59:28;97750.66;;;-1.21;46.19
77077;BME280;66003;52.286;104.306;2023-02-22T12:02:22;97712.56;;;-1.48;45.91
77077;BME280;66003;52.286;104.306;2023-02-22T12:18:58;97724.47;;;-1.92;47.08
77077;BME280;66003;52.286;104.306;2023-02-22T12:21:28;97771.56;;;-1.76;47.78
77077;BME280;66003;52.286;104.306;2023-02-22T12:24:23;97675.75;;;-2.42;48.20
77077;BME280;66003;52.286;104.306;2023-02-22T12:26:54;97714.81;;;-2.24;47.59
77077;BME280;66003;52.286;104.306;2023-02-22T12:29:25;97783.22;;;-1.87;47.48
77077;BME280;66003;52.286;104.306;2023-02-22T12:32:28;97779.47;;;-1.92;47.20
77077;BME280;66003;52.286;104.306;2023-02-22T12:36:16;97784.88;;;-2.02;46.99
77077;BME280;66003;52.286;104.306;2023-02-22T12:38:51;97735.78;;;-2.40;47.38
77077;BME280;66003;52.286;104.306;2023-02-22T12:41:43;97791.44;;;-2.14;48.08
77077;BME280;66003;52.286;104.306;2023-02-22T12:44:23;97790.44;;;-2.21;49.28
77077;BME280;66003;52.286;104.306;2023-02-22T12:46:52;97740.00;;;-2.56;50.31
77077;BME280;66003;52.286;104.306;2023-02-22T12:52:41;97797.78;;;-2.33;49.55
77077;BME280;66003;52.286;104.306;2023-02-22T12:55:11;97748.16;;;-2.75;49.43
77077;BME280;66003;52.286;104.306;2023-02-22T12:57:53;97750.56;;;-2.89;49.50
77077;BME280;66003;52.286;104.306;2023-02-22T13:00:27;97802.19;;;-2.49;49.18
77077;BME280;66003;52.286;104.306;2023-02-22T13:02:59;97810.50;;;-2.62;49.49
77077;BME280;66003;52.286;104.306;2023-02-22T13:05:48;97776.28;;;-2.85;48.57
77077;BME280;66003;52.286;104.306;2023-02-22T13:08:28;97774.88;;;-3.05;48.96
77077;BME280;66003;52.286;104.306;2023-02-22T13:11:22;97802.88;;;-2.89;48.37
77077;BME280;66003;52.286;104.306;2023-02-22T13:16:46;97802.19;;;-3.00;49.01
77077;BME280;66003;52.286;104.306;2023-02-22T13:19:56;97741.69;;;-3.55;49.08
77077;BME280;66003;52.286;104.306;2023-02-22T13:22:34;97793.41;;;-3.33;47.03
77077;BME280;66003;52.286;104.306;2023-02-22T13:27:53;97799.41;;;-3.66;49.10
77077;BME280;66003;52.286;104.306;2023-02-22T13:30:39;97655.84;;;-4.61;48.70
77077;BME280;66003;52.286;104.306;2023-02-22T13:35:57;97801.63;;;-3.79;49.16
77077;BME280;66003;52.286;104.306;2023-02-22T13:44:30;97806.25;;;-3.91;49.43
77077;BME280;66003;52.286;104.306;2023-02-22T13:47:17;97668.16;;;-4.89;49.63
77077;BME280;66003;52.286;104.306;2023-02-22T13:52:52;97804.34;;;-4.42;48.77
77077;BME280;66003;52.286;104.306;2023-02-22T13:55:24;97818.25;;;-4.69;50.98
77077;BME280;66003;52.286;104.306;2023-02-22T13:58:01;97788.28;;;-4.83;49.80
77077;BME280;66003;52.286;104.306;2023-02-22T14:00:47;97827.09;;;-4.80;50.00
77077;BME280;66003;52.286;104.306;2023-02-22T14:13:22;97823.72;;;-5.17;47.78
77077;BME280;66003;52.286;104.306;2023-02-22T14:23:51;97782.66;;;-6.16;48.04
77077;BME280;66003;52.286;104.306;2023-02-22T14:26:27;97844.41;;;-6.18;51.30
77077;BME280;66003;52.286;104.306;2023-02-22T14:31:52;97848.38;;;-6.43;51.00
77077;BME280;66003;52.286;104.306;2023-02-22T14:39:47;97854.03;;;-6.88;52.82
77077;BME280;66003;52.286;104.306;2023-02-22T14:45:02;97828.72;;;-7.36;52.94
77077;BME280;66003;52.286;104.306;2023-02-22T14:47:53;97877.84;;;-7.23;52.67
77077;BME280;66003;52.286;104.306;2023-02-22T14:56:03;97824.47;;;-7.37;50.28
77077;BME280;66003;52.286;104.306;2023-02-22T14:58:41;97886.25;;;-7.31;51.44
77077;BME280;66003;52.286;104.306;2023-02-22T15:01:32;97887.03;;;-7.40;50.49
77077;BME280;66003;52.286;104.306;2023-02-22T15:04:16;97856.81;;;-7.92;51.70
77077;BME280;66003;52.286;104.306;2023-02-22T15:06:42;97849.03;;;-7.92;51.60
77077;BME280;66003;52.286;104.306;2023-02-22T15:09:17;97906.81;;;-7.48;50.82
77077;BME280;66003;52.286;104.306;2023-02-22T15:11:53;97877.16;;;-7.67;49.52
77077;BME280;66003;52.286;104.306;2023-02-22T15:14:24;97912.75;;;-7.78;50.17
77077;BME280;66003;52.286;104.306;2023-02-22T15:16:56;97860.47;;;-8.15;50.76
77077;BME280;66003;52.286;104.306;2023-02-22T15:19:28;97895.50;;;-8.00;50.13
77077;BME280;66003;52.286;104.306;2023-02-22T15:21:56;97878.13;;;-8.09;50.18
77077;BME280;66003;52.286;104.306;2023-02-22T15:24:26;97896.03;;;-8.06;50.02